sensor_id;sensor_type;location;lat;lon;timestamp;P1;durP1;ratioP1;P2;durP2;ratioP2
6243;SDS011;3155;49.940;8.450;2022-11-18T00:01:15;0.37;;;0.37;;
6243;SDS011;3155;49.940;8.450;2022-11-18T00:03:44;1.00;;;0.70;;
6243;SDS011;3155;49.940;8.450;2022-11-18T00:06:21;0.60;;;0.60;;
6243;SDS011;3155;49.940;8.450;2022-11-18T00:08:50;0.30;;;0.22;;
6243;SDS011;3155;49.940;8.450;2022-11-18T00:11:19;0.43;;;0.33;;
6243;SDS011;3155;49.940;8.450;2022-11-18T00:14:10;0.40;;;0.40;;
6243;SDS011;3155;49.940;8.450;2022-11-18T00:19:16;0.60;;;0.60;;
6243;SDS011;3155;49.940;8.450;2022-11-18T00:21:44;0.50;;;0.50;;
6243;SDS011;3155;49.940;8.450;2022-11-18T00:24:10;1.10;;;0.60;;
6243;SDS011;3155;49.940;8.450;2022-11-18T00:26:37;0.35;;;0.35;;
6243;SDS011;3155;49.940;8.450;2022-11-18T00:29:04;0.50;;;0.50;;
6243;SDS011;3155;49.940;8.450;2022-11-18T00:31:31;5.70;;;0.70;;
6243;SDS011;3155;49.940;8.450;2022-11-18T00:33:58;0.13;;;0.13;;
6243;SDS011;3155;49.940;8.450;2022-11-18T00:36:24;1.17;;;0.55;;
6243;SDS011;3155;49.940;8.450;2022-11-18T00:38:51;0.40;;;0.40;;
6243;SDS011;3155;49.940;8.450;2022-11-18T00:41:18;0.80;;;0.80;;
6243;SDS011;3155;49.940;8.450;2022-11-18T00:43:45;0.20;;;0.20;;
6243;SDS011;3155;49.940;8.450;2022-11-18T00:46:12;0.30;;;0.30;;
6243;SDS011;3155;49.940;8.450;2022-11-18T00:48:39;0.20;;;0.20;;
6243;SDS011;3155;49.940;8.450;2022-11-18T00:51:14;0.20;;;0.20;;
6243;SDS011;3155;49.940;8.450;2022-11-18T00:53:42;1.48;;;0.50;;
6243;SDS011;3155;49.940;8.450;2022-11-18T00:56:09;0.30;;;0.30;;
6243;SDS011;3155;49.940;8.450;2022-11-18T00:58:36;1.80;;;0.80;;
6243;SDS011;3155;49.940;8.450;2022-11-18T01:01:03;0.43;;;0.43;;
6243;SDS011;3155;49.940;8.450;2022-11-18T01:03:30;0.40;;;0.40;;
6243;SDS011;3155;49.940;8.450;2022-11-18T01:05:58;0.47;;;0.45;;
6243;SDS011;3155;49.940;8.450;2022-11-18T01:08:25;0.32;;;0.32;;
6243;SDS011;3155;49.940;8.450;2022-11-18T01:10:52;0.55;;;0.55;;
6243;SDS011;3155;49.940;8.450;2022-11-18T01:13:19;0.55;;;0.55;;
6243;SDS011;3155;49.940;8.450;2022-11-18T01:18:15;0.70;;;0.70;;
6243;SDS011;3155;49.940;8.450;2022-11-18T01:20:42;1.40;;;0.77;;
6243;SDS011;3155;49.940;8.450;2022-11-18T01:23:10;0.30;;;0.30;;
6243;SDS011;3155;49.940;8.450;2022-11-18T01:25:37;0.45;;;0.45;;
6243;SDS011;3155;49.940;8.450;2022-11-18T01:28:06;1.08;;;0.77;;
6243;SDS011;3155;49.940;8.450;2022-11-18T01:30:33;0.60;;;0.60;;
6243;SDS011;3155;49.940;8.450;2022-11-18T01:33:01;0.63;;;0.63;;
6243;SDS011;3155;49.940;8.450;2022-11-18T01:35:35;0.98;;;0.98;;
6243;SDS011;3155;49.940;8.450;2022-11-18T01:38:04;0.70;;;0.70;;
6243;SDS011;3155;49.940;8.450;2022-11-18T01:40:32;0.70;;;0.70;;
6243;SDS011;3155;49.940;8.450;2022-11-18T01:42:59;0.60;;;0.60;;
6243;SDS011;3155;49.940;8.450;2022-11-18T01:45:33;2.50;;;0.57;;
6243;SDS011;3155;49.940;8.450;2022-11-18T01:48:08;0.63;;;0.57;;
6243;SDS011;3155;49.940;8.450;2022-11-18T01:50:40;0.63;;;0.63;;
6243;SDS011;3155;49.940;8.450;2022-11-18T01:53:24;0.87;;;0.87;;
6243;SDS011;3155;49.940;8.450;2022-11-18T01:56:01;1.00;;;0.90;;
6243;SDS011;3155;49.940;8.450;2022-11-18T01:58:35;0.45;;;0.45;;
6243;SDS011;3155;49.940;8.450;2022-11-18T02:01:06;0.57;;;0.57;;
6243;SDS011;3155;49.940;8.450;2022-11-18T02:03:33;0.70;;;0.60;;
6243;SDS011;3155;49.940;8.450;2022-11-18T02:06:01;0.57;;;0.57;;
6243;SDS011;3155;49.940;8.450;2022-11-18T02:08:29;0.68;;;0.68;;
6243;SDS011;3155;49.940;8.450;2022-11-18T02:10:58;0.85;;;0.85;;
6243;SDS011;3155;49.940;8.450;2022-11-18T02:13:24;0.80;;;0.73;;
6243;SDS011;3155;49.940;8.450;2022-11-18T02:18:22;0.83;;;0.83;;
6243;SDS011;3155;49.940;8.450;2022-11-18T02:21:26;0.52;;;0.52;;
6243;SDS011;3155;49.940;8.450;2022-11-18T02:30:10;0.85;;;0.70;;
6243;SDS011;3155;49.940;8.450;2022-11-18T02:32:48;0.70;;;0.70;;
6243;SDS011;3155;49.940;8.450;2022-11-18T02:38:11;0.68;;;0.68;;
6243;SDS011;3155;49.940;8.450;2022-11-18T02:40:42;1.30;;;1.00;;
6243;SDS011;3155;49.940;8.450;2022-11-18T02:43:16;0.50;;;0.50;;
6243;SDS011;3155;49.940;8.450;2022-11-18T02:45:54;0.80;;;0.80;;
6243;SDS011;3155;49.940;8.450;2022-11-18T02:48:25;1.02;;;0.95;;
6243;SDS011;3155;49.940;8.450;2022-11-18T02:50:55;1.50;;;1.13;;
6243;SDS011;3155;49.940;8.450;2022-11-18T02:53:23;0.85;;;0.85;;
6243;SDS011;3155;49.940;8.450;2022-11-18T02:55:53;0.52;;;0.52;;
6243;SDS011;3155;49.940;8.450;2022-11-18T02:58:21;0.60;;;0.60;;
6243;SDS011;3155;49.940;8.450;2022-11-18T03:00:57;1.00;;;0.70;;
6243;SDS011;3155;49.940;8.450;2022-11-18T03:03:29;1.30;;;1.20;;
6243;SDS011;3155;49.940;8.450;2022-11-18T03:08:34;1.90;;;1.50;;
6243;SDS011;3155;49.940;8.450;2022-11-18T03:11:17;0.98;;;0.95;;
6243;SDS011;3155;49.940;8.450;2022-11-18T03:19:39;0.85;;;0.80;;
6243;SDS011;3155;49.940;8.450;2022-11-18T03:22:22;0.95;;;0.82;;
6243;SDS011;3155;49.940;8.450;2022-11-18T03:25:04;1.23;;;0.63;;
6243;SDS011;3155;49.940;8.450;2022-11-18T03:27:38;0.82;;;0.82;;
6243;SDS011;3155;49.940;8.450;2022-11-18T03:30:12;0.68;;;0.68;;
6243;SDS011;3155;49.940;8.450;2022-11-18T03:32:42;0.55;;;0.47;;
6243;SDS011;3155;49.940;8.450;2022-11-18T03:35:22;0.80;;;0.80;;
6243;SDS011;3155;49.940;8.450;2022-11-18T03:37:53;1.10;;;0.98;;
6243;SDS011;3155;49.940;8.450;2022-11-18T03:40:29;0.70;;;0.70;;
6243;SDS011;3155;49.940;8.450;2022-11-18T03:43:02;0.45;;;0.38;;
6243;SDS011;3155;49.940;8.450;2022-11-18T03:45:40;0.50;;;0.50;;
6243;SDS011;3155;49.940;8.450;2022-11-18T03:48:22;0.50;;;0.50;;
6243;SDS011;3155;49.940;8.450;2022-11-18T03:50:56;1.73;;;0.90;;
6243;SDS011;3155;49.940;8.450;2022-11-18T03:53:27;1.60;;;0.70;;
6243;SDS011;3155;49.940;8.450;2022-11-18T03:56:00;1.90;;;0.90;;
6243;SDS011;3155;49.940;8.450;2022-11-18T03:58:45;1.27;;;0.30;;
6243;SDS011;3155;49.940;8.450;2022-11-18T04:01:35;0.70;;;0.70;;
6243;SDS011;3155;49.940;8.450;2022-11-18T04:04:08;0.30;;;0.30;;
6243;SDS011;3155;49.940;8.450;2022-11-18T04:06:37;0.77;;;0.77;;
6243;SDS011;3155;49.940;8.450;2022-11-18T04:09:10;0.98;;;0.95;;
6243;SDS011;3155;49.940;8.450;2022-11-18T04:11:43;0.70;;;0.70;;
6243;SDS011;3155;49.940;8.450;2022-11-18T04:14:28;0.40;;;0.40;;
6243;SDS011;3155;49.940;8.450;2022-11-18T04:16:57;0.75;;;0.75;;
6243;SDS011;3155;49.940;8.450;2022-11-18T04:19:23;0.60;;;0.60;;
6243;SDS011;3155;49.940;8.450;2022-11-18T04:21:50;1.50;;;1.00;;
6243;SDS011;3155;49.940;8.450;2022-11-18T04:24:17;1.30;;;0.60;;
6243;SDS011;3155;49.940;8.450;2022-11-18T04:26:44;0.93;;;0.93;;
6243;SDS011;3155;49.940;8.450;2022-11-18T04:29:10;0.90;;;0.90;;
6243;SDS011;3155;49.940;8.450;2022-11-18T04:31:37;0.63;;;0.63;;
6243;SDS011;3155;49.940;8.450;2022-11-18T04:34:04;0.70;;;0.70;;
6243;SDS011;3155;49.940;8.450;2022-11-18T04:36:31;0.50;;;0.50;;
6243;SDS011;3155;49.940;8.450;2022-11-18T04:38:57;4.03;;;0.93;;
6243;SDS011;3155;49.940;8.450;2022-11-18T04:41:24;0.68;;;0.68;;
6243;SDS011;3155;49.940;8.450;2022-11-18T04:44:11;1.80;;;0.90;;
6243;SDS011;3155;49.940;8.450;2022-11-18T04:46:41;0.75;;;0.75;;
6243;SDS011;3155;49.940;8.450;2022-11-18T04:49:09;0.70;;;0.70;;
6243;SDS011;3155;49.940;8.450;2022-11-18T04:51:38;2.40;;;1.10;;
6243;SDS011;3155;49.940;8.450;2022-11-18T04:54:07;1.30;;;0.70;;
6243;SDS011;3155;49.940;8.450;2022-11-18T04:56:34;0.90;;;0.85;;
6243;SDS011;3155;49.940;8.450;2022-11-18T04:59:02;1.38;;;1.05;;
6243;SDS011;3155;49.940;8.450;2022-11-18T05:01:30;1.70;;;0.90;;
6243;SDS011;3155;49.940;8.450;2022-11-18T05:03:58;1.00;;;0.90;;
6243;SDS011;3155;49.940;8.450;2022-11-18T05:06:27;1.10;;;0.85;;
6243;SDS011;3155;49.940;8.450;2022-11-18T05:08:55;0.75;;;0.75;;
6243;SDS011;3155;49.940;8.450;2022-11-18T05:11:23;1.15;;;0.70;;
6243;SDS011;3155;49.940;8.450;2022-11-18T05:14:09;2.10;;;1.02;;
6243;SDS011;3155;49.940;8.450;2022-11-18T05:16:36;0.70;;;0.70;;
6243;SDS011;3155;49.940;8.450;2022-11-18T05:19:03;0.70;;;0.70;;
6243;SDS011;3155;49.940;8.450;2022-11-18T05:21:30;1.20;;;0.43;;
6243;SDS011;3155;49.940;8.450;2022-11-18T05:23:58;1.20;;;0.80;;
6243;SDS011;3155;49.940;8.450;2022-11-18T05:26:25;2.70;;;1.03;;
6243;SDS011;3155;49.940;8.450;2022-11-18T05:28:52;1.40;;;0.95;;
6243;SDS011;3155;49.940;8.450;2022-11-18T05:31:19;0.80;;;0.80;;
6243;SDS011;3155;49.940;8.450;2022-11-18T05:33:46;0.75;;;0.75;;
6243;SDS011;3155;49.940;8.450;2022-11-18T05:36:17;1.35;;;0.80;;
6243;SDS011;3155;49.940;8.450;2022-11-18T05:38:45;1.77;;;1.05;;
6243;SDS011;3155;49.940;8.450;2022-11-18T05:41:12;1.42;;;1.13;;
6243;SDS011;3155;49.940;8.450;2022-11-18T05:43:59;1.20;;;1.10;;
6243;SDS011;3155;49.940;8.450;2022-11-18T05:46:26;0.88;;;0.88;;
6243;SDS011;3155;49.940;8.450;2022-11-18T05:48:53;0.77;;;0.77;;
6243;SDS011;3155;49.940;8.450;2022-11-18T05:51:20;0.82;;;0.82;;
6243;SDS011;3155;49.940;8.450;2022-11-18T05:53:48;1.83;;;1.70;;
6243;SDS011;3155;49.940;8.450;2022-11-18T05:56:19;1.60;;;1.50;;
6243;SDS011;3155;49.940;8.450;2022-11-18T05:58:50;0.77;;;0.77;;
6243;SDS011;3155;49.940;8.450;2022-11-18T06:01:32;0.75;;;0.75;;
6243;SDS011;3155;49.940;8.450;2022-11-18T06:04:22;0.80;;;0.73;;
6243;SDS011;3155;49.940;8.450;2022-11-18T06:09:56;2.30;;;2.13;;
6243;SDS011;3155;49.940;8.450;2022-11-18T06:12:33;1.70;;;1.20;;
6243;SDS011;3155;49.940;8.450;2022-11-18T06:15:17;2.75;;;1.10;;
6243;SDS011;3155;49.940;8.450;2022-11-18T06:20:50;1.30;;;0.95;;
6243;SDS011;3155;49.940;8.450;2022-11-18T06:23:20;2.65;;;1.45;;
6243;SDS011;3155;49.940;8.450;2022-11-18T06:25:47;0.98;;;0.77;;
6243;SDS011;3155;49.940;8.450;2022-11-18T06:28:15;1.38;;;0.80;;
6243;SDS011;3155;49.940;8.450;2022-11-18T06:30:43;1.67;;;1.52;;
6243;SDS011;3155;49.940;8.450;2022-11-18T06:33:09;1.05;;;0.88;;
6243;SDS011;3155;49.940;8.450;2022-11-18T06:35:36;0.68;;;0.68;;
6243;SDS011;3155;49.940;8.450;2022-11-18T06:38:03;1.10;;;1.00;;
6243;SDS011;3155;49.940;8.450;2022-11-18T06:40:30;0.70;;;0.70;;
6243;SDS011;3155;49.940;8.450;2022-11-18T06:43:06;0.60;;;0.60;;
6243;SDS011;3155;49.940;8.450;2022-11-18T06:45:56;1.30;;;1.27;;
6243;SDS011;3155;49.940;8.450;2022-11-18T06:48:42;0.73;;;0.73;;
6243;SDS011;3155;49.940;8.450;2022-11-18T06:51:10;1.40;;;1.00;;
6243;SDS011;3155;49.940;8.450;2022-11-18T06:53:37;1.85;;;1.35;;
6243;SDS011;3155;49.940;8.450;2022-11-18T06:56:04;3.80;;;0.90;;
6243;SDS011;3155;49.940;8.450;2022-11-18T06:58:32;0.70;;;0.70;;
6243;SDS011;3155;49.940;8.450;2022-11-18T07:01:33;0.98;;;0.88;;
6243;SDS011;3155;49.940;8.450;2022-11-18T07:03:54;1.13;;;0.85;;
6243;SDS011;3155;49.940;8.450;2022-11-18T07:06:24;0.32;;;0.32;;
6243;SDS011;3155;49.940;8.450;2022-11-18T07:08:55;2.50;;;1.10;;
6243;SDS011;3155;49.940;8.450;2022-11-18T07:11:23;0.90;;;0.90;;
6243;SDS011;3155;49.940;8.450;2022-11-18T07:13:51;2.05;;;0.90;;
6243;SDS011;3155;49.940;8.450;2022-11-18T07:16:21;3.13;;;0.57;;
6243;SDS011;3155;49.940;8.450;2022-11-18T07:18:50;0.70;;;0.70;;
6243;SDS011;3155;49.940;8.450;2022-11-18T07:21:19;0.70;;;0.70;;
6243;SDS011;3155;49.940;8.450;2022-11-18T07:23:47;0.40;;;0.40;;
6243;SDS011;3155;49.940;8.450;2022-11-18T07:26:14;0.50;;;0.50;;
6243;SDS011;3155;49.940;8.450;2022-11-18T07:28:42;0.32;;;0.32;;
6243;SDS011;3155;49.940;8.450;2022-11-18T07:31:10;0.73;;;0.55;;
6243;SDS011;3155;49.940;8.450;2022-11-18T07:33:38;0.60;;;0.60;;
6243;SDS011;3155;49.940;8.450;2022-11-18T07:36:10;0.20;;;0.20;;
6243;SDS011;3155;49.940;8.450;2022-11-18T07:38:39;0.20;;;0.20;;
6243;SDS011;3155;49.940;8.450;2022-11-18T07:41:10;0.20;;;0.20;;
6243;SDS011;3155;49.940;8.450;2022-11-18T07:43:48;0.20;;;0.20;;
6243;SDS011;3155;49.940;8.450;2022-11-18T07:46:23;0.80;;;0.65;;
6243;SDS011;3155;49.940;8.450;2022-11-18T07:48:53;0.70;;;0.70;;
6243;SDS011;3155;49.940;8.450;2022-11-18T07:51:21;0.20;;;0.20;;
6243;SDS011;3155;49.940;8.450;2022-11-18T07:53:50;0.20;;;0.20;;
6243;SDS011;3155;49.940;8.450;2022-11-18T07:56:17;0.50;;;0.50;;
6243;SDS011;3155;49.940;8.450;2022-11-18T07:58:44;0.10;;;0.10;;
6243;SDS011;3155;49.940;8.450;2022-11-18T08:03:43;1.00;;;0.30;;
6243;SDS011;3155;49.940;8.450;2022-11-18T08:06:12;0.10;;;0.10;;
6243;SDS011;3155;49.940;8.450;2022-11-18T08:08:40;0.05;;;0.05;;
6243;SDS011;3155;49.940;8.450;2022-11-18T08:11:09;0.20;;;0.20;;
6243;SDS011;3155;49.940;8.450;2022-11-18T08:13:45;0.20;;;0.20;;
6243;SDS011;3155;49.940;8.450;2022-11-18T08:16:13;0.40;;;0.25;;
6243;SDS011;3155;49.940;8.450;2022-11-18T08:18:44;1.20;;;0.20;;
6243;SDS011;3155;49.940;8.450;2022-11-18T08:21:11;0.20;;;0.20;;
6243;SDS011;3155;49.940;8.450;2022-11-18T08:23:39;0.20;;;0.20;;
6243;SDS011;3155;49.940;8.450;2022-11-18T08:26:11;0.20;;;0.20;;
6243;SDS011;3155;49.940;8.450;2022-11-18T08:28:40;0.17;;;0.17;;
6243;SDS011;3155;49.940;8.450;2022-11-18T08:31:12;0.10;;;0.10;;
6243;SDS011;3155;49.940;8.450;2022-11-18T08:33:41;0.10;;;0.10;;
6243;SDS011;3155;49.940;8.450;2022-11-18T08:36:09;0.25;;;0.25;;
6243;SDS011;3155;49.940;8.450;2022-11-18T08:38:40;0.20;;;0.20;;
6243;SDS011;3155;49.940;8.450;2022-11-18T08:41:09;0.10;;;0.10;;
6243;SDS011;3155;49.940;8.450;2022-11-18T08:43:41;0.10;;;0.10;;
6243;SDS011;3155;49.940;8.450;2022-11-18T08:46:08;0.10;;;0.10;;
6243;SDS011;3155;49.940;8.450;2022-11-18T08:48:35;0.10;;;0.10;;
6243;SDS011;3155;49.940;8.450;2022-11-18T08:51:02;0.20;;;0.20;;
6243;SDS011;3155;49.940;8.450;2022-11-18T08:53:29;0.40;;;0.10;;
6243;SDS011;3155;49.940;8.450;2022-11-18T08:55:56;0.90;;;0.47;;
6243;SDS011;3155;49.940;8.450;2022-11-18T08:58:24;0.25;;;0.25;;
6243;SDS011;3155;49.940;8.450;2022-11-18T09:00:52;0.10;;;0.10;;
6243;SDS011;3155;49.940;8.450;2022-11-18T09:03:19;0.00;;;0.00;;
6243;SDS011;3155;49.940;8.450;2022-11-18T09:05:46;0.00;;;0.00;;
6243;SDS011;3155;49.940;8.450;2022-11-18T09:08:13;0.10;;;0.10;;
6243;SDS011;3155;49.940;8.450;2022-11-18T09:10:41;0.10;;;0.10;;
6243;SDS011;3155;49.940;8.450;2022-11-18T09:13:08;0.10;;;0.10;;
6243;SDS011;3155;49.940;8.450;2022-11-18T09:15:57;0.50;;;0.20;;
6243;SDS011;3155;49.940;8.450;2022-11-18T09:18:24;0.10;;;0.10;;
6243;SDS011;3155;49.940;8.450;2022-11-18T09:21:01;0.15;;;0.15;;
6243;SDS011;3155;49.940;8.450;2022-11-18T09:23:31;0.20;;;0.20;;
6243;SDS011;3155;49.940;8.450;2022-11-18T09:26:00;0.00;;;0.00;;
6243;SDS011;3155;49.940;8.450;2022-11-18T09:28:32;0.20;;;0.20;;
6243;SDS011;3155;49.940;8.450;2022-11-18T09:31:02;1.20;;;0.22;;
6243;SDS011;3155;49.940;8.450;2022-11-18T09:33:36;0.00;;;0.00;;
6243;SDS011;3155;49.940;8.450;2022-11-18T09:36:04;0.00;;;0.00;;
6243;SDS011;3155;49.940;8.450;2022-11-18T09:38:37;0.10;;;0.10;;
6243;SDS011;3155;49.940;8.450;2022-11-18T09:41:06;0.17;;;0.17;;
6243;SDS011;3155;49.940;8.450;2022-11-18T09:49:30;0.10;;;0.10;;
6243;SDS011;3155;49.940;8.450;2022-11-18T09:52:00;0.10;;;0.10;;
6243;SDS011;3155;49.940;8.450;2022-11-18T09:54:30;0.10;;;0.10;;
6243;SDS011;3155;49.940;8.450;2022-11-18T09:57:00;0.00;;;0.00;;
6243;SDS011;3155;49.940;8.450;2022-11-18T09:59:29;0.08;;;0.08;;
6243;SDS011;3155;49.940;8.450;2022-11-18T10:02:18;0.20;;;0.20;;
6243;SDS011;3155;49.940;8.450;2022-11-18T10:05:18;0.20;;;0.20;;
6243;SDS011;3155;49.940;8.450;2022-11-18T10:08:02;1.00;;;0.30;;
6243;SDS011;3155;49.940;8.450;2022-11-18T10:10:55;0.30;;;0.30;;
6243;SDS011;3155;49.940;8.450;2022-11-18T10:13:53;0.20;;;0.20;;
6243;SDS011;3155;49.940;8.450;2022-11-18T10:19:10;0.30;;;0.20;;
6243;SDS011;3155;49.940;8.450;2022-11-18T10:24:51;1.60;;;0.30;;
6243;SDS011;3155;49.940;8.450;2022-11-18T10:27:20;2.58;;;0.50;;
6243;SDS011;3155;49.940;8.450;2022-11-18T10:29:53;0.30;;;0.30;;
6243;SDS011;3155;49.940;8.450;2022-11-18T10:32:22;0.20;;;0.20;;
6243;SDS011;3155;49.940;8.450;2022-11-18T10:34:50;0.20;;;0.20;;
6243;SDS011;3155;49.940;8.450;2022-11-18T10:37:23;0.10;;;0.10;;
6243;SDS011;3155;49.940;8.450;2022-11-18T10:40:13;0.30;;;0.30;;
6243;SDS011;3155;49.940;8.450;2022-11-18T10:42:49;0.30;;;0.30;;
6243;SDS011;3155;49.940;8.450;2022-11-18T10:47:59;0.30;;;0.30;;
6243;SDS011;3155;49.940;8.450;2022-11-18T10:50:43;0.20;;;0.20;;
6243;SDS011;3155;49.940;8.450;2022-11-18T10:53:31;0.20;;;0.20;;
6243;SDS011;3155;49.940;8.450;2022-11-18T10:56:00;0.10;;;0.10;;
6243;SDS011;3155;49.940;8.450;2022-11-18T10:58:34;0.20;;;0.20;;
6243;SDS011;3155;49.940;8.450;2022-11-18T11:03:34;0.10;;;0.10;;
6243;SDS011;3155;49.940;8.450;2022-11-18T11:14:02;0.25;;;0.25;;
6243;SDS011;3155;49.940;8.450;2022-11-18T11:16:35;0.22;;;0.22;;
6243;SDS011;3155;49.940;8.450;2022-11-18T11:19:38;0.20;;;0.20;;
6243;SDS011;3155;49.940;8.450;2022-11-18T11:22:12;0.30;;;0.30;;
6243;SDS011;3155;49.940;8.450;2022-11-18T11:24:39;0.32;;;0.32;;
6243;SDS011;3155;49.940;8.450;2022-11-18T11:41:18;0.55;;;0.50;;
6243;SDS011;3155;49.940;8.450;2022-11-18T11:51:52;1.58;;;0.82;;
6243;SDS011;3155;49.940;8.450;2022-11-18T11:57:04;1.20;;;0.50;;
6243;SDS011;3155;49.940;8.450;2022-11-18T11:59:48;0.65;;;0.47;;
6243;SDS011;3155;49.940;8.450;2022-11-18T12:02:42;0.30;;;0.30;;
6243;SDS011;3155;49.940;8.450;2022-11-18T12:05:37;0.20;;;0.20;;
6243;SDS011;3155;49.940;8.450;2022-11-18T12:08:07;0.20;;;0.20;;
6243;SDS011;3155;49.940;8.450;2022-11-18T12:19:02;0.30;;;0.30;;
6243;SDS011;3155;49.940;8.450;2022-11-18T12:27:10;2.40;;;0.25;;
6243;SDS011;3155;49.940;8.450;2022-11-18T12:37:43;0.47;;;0.30;;
6243;SDS011;3155;49.940;8.450;2022-11-18T12:40:30;0.20;;;0.20;;
6243;SDS011;3155;49.940;8.450;2022-11-18T12:52:00;0.40;;;0.40;;
6243;SDS011;3155;49.940;8.450;2022-11-18T12:57:18;0.25;;;0.25;;
6243;SDS011;3155;49.940;8.450;2022-11-18T12:59:47;0.70;;;0.30;;
6243;SDS011;3155;49.940;8.450;2022-11-18T13:05:05;0.30;;;0.30;;
6243;SDS011;3155;49.940;8.450;2022-11-18T13:07:43;0.30;;;0.30;;
6243;SDS011;3155;49.940;8.450;2022-11-18T13:10:32;0.30;;;0.30;;
6243;SDS011;3155;49.940;8.450;2022-11-18T13:13:02;0.20;;;0.20;;
6243;SDS011;3155;49.940;8.450;2022-11-18T13:15:30;1.00;;;0.30;;
6243;SDS011;3155;49.940;8.450;2022-11-18T13:18:18;0.20;;;0.20;;
6243;SDS011;3155;49.940;8.450;2022-11-18T13:20:55;2.80;;;0.45;;
6243;SDS011;3155;49.940;8.450;2022-11-18T13:23:25;0.30;;;0.30;;
6243;SDS011;3155;49.940;8.450;2022-11-18T13:34:53;0.20;;;0.20;;
6243;SDS011;3155;49.940;8.450;2022-11-18T13:37:23;0.20;;;0.20;;
6243;SDS011;3155;49.940;8.450;2022-11-18T13:39:51;0.20;;;0.20;;
6243;SDS011;3155;49.940;8.450;2022-11-18T13:42:19;0.80;;;0.40;;
6243;SDS011;3155;49.940;8.450;2022-11-18T13:44:52;0.20;;;0.20;;
6243;SDS011;3155;49.940;8.450;2022-11-18T13:55:36;0.22;;;0.22;;
6243;SDS011;3155;49.940;8.450;2022-11-18T14:00:53;0.50;;;0.40;;
6243;SDS011;3155;49.940;8.450;2022-11-18T14:03:30;0.15;;;0.15;;
6243;SDS011;3155;49.940;8.450;2022-11-18T14:06:00;0.30;;;0.30;;
6243;SDS011;3155;49.940;8.450;2022-11-18T14:08:31;0.10;;;0.10;;
6243;SDS011;3155;49.940;8.450;2022-11-18T14:11:00;0.30;;;0.30;;
6243;SDS011;3155;49.940;8.450;2022-11-18T14:13:28;0.20;;;0.20;;
6243;SDS011;3155;49.940;8.450;2022-11-18T14:15:58;0.20;;;0.20;;
6243;SDS011;3155;49.940;8.450;2022-11-18T14:18:29;0.20;;;0.20;;
6243;SDS011;3155;49.940;8.450;2022-11-18T14:21:02;0.20;;;0.20;;
6243;SDS011;3155;49.940;8.450;2022-11-18T14:23:32;1.40;;;0.30;;
6243;SDS011;3155;49.940;8.450;2022-11-18T14:26:02;1.20;;;0.50;;
6243;SDS011;3155;49.940;8.450;2022-11-18T14:28:31;1.58;;;0.68;;
6243;SDS011;3155;49.940;8.450;2022-11-18T14:33:38;0.22;;;0.22;;
6243;SDS011;3155;49.940;8.450;2022-11-18T14:38:49;0.50;;;0.50;;
6243;SDS011;3155;49.940;8.450;2022-11-18T14:41:36;0.30;;;0.30;;
6243;SDS011;3155;49.940;8.450;2022-11-18T14:44:12;0.80;;;0.30;;
6243;SDS011;3155;49.940;8.450;2022-11-18T14:46:39;0.20;;;0.20;;
6243;SDS011;3155;49.940;8.450;2022-11-18T14:49:10;0.32;;;0.32;;
6243;SDS011;3155;49.940;8.450;2022-11-18T14:51:44;2.10;;;0.50;;
6243;SDS011;3155;49.940;8.450;2022-11-18T14:54:14;0.60;;;0.60;;
6243;SDS011;3155;49.940;8.450;2022-11-18T14:56:52;0.40;;;0.40;;
6243;SDS011;3155;49.940;8.450;2022-11-18T14:59:21;0.30;;;0.30;;
6243;SDS011;3155;49.940;8.450;2022-11-18T15:01:48;0.30;;;0.30;;
6243;SDS011;3155;49.940;8.450;2022-11-18T15:04:15;0.90;;;0.40;;
6243;SDS011;3155;49.940;8.450;2022-11-18T15:06:43;0.50;;;0.50;;
6243;SDS011;3155;49.940;8.450;2022-11-18T15:09:10;0.30;;;0.30;;
6243;SDS011;3155;49.940;8.450;2022-11-18T15:11:37;0.30;;;0.30;;
6243;SDS011;3155;49.940;8.450;2022-11-18T15:14:04;0.28;;;0.28;;
6243;SDS011;3155;49.940;8.450;2022-11-18T15:16:31;0.20;;;0.20;;
6243;SDS011;3155;49.940;8.450;2022-11-18T15:19:00;0.40;;;0.30;;
6243;SDS011;3155;49.940;8.450;2022-11-18T15:21:28;0.35;;;0.35;;
6243;SDS011;3155;49.940;8.450;2022-11-18T15:23:55;0.30;;;0.30;;
6243;SDS011;3155;49.940;8.450;2022-11-18T15:26:26;0.20;;;0.20;;
6243;SDS011;3155;49.940;8.450;2022-11-18T15:29:01;0.20;;;0.20;;
6243;SDS011;3155;49.940;8.450;2022-11-18T15:31:27;0.60;;;0.60;;
6243;SDS011;3155;49.940;8.450;2022-11-18T15:33:54;0.60;;;0.60;;
6243;SDS011;3155;49.940;8.450;2022-11-18T15:36:24;0.30;;;0.30;;
6243;SDS011;3155;49.940;8.450;2022-11-18T15:38:53;0.70;;;0.60;;
6243;SDS011;3155;49.940;8.450;2022-11-18T15:41:21;0.30;;;0.30;;
6243;SDS011;3155;49.940;8.450;2022-11-18T15:43:52;0.30;;;0.30;;
6243;SDS011;3155;49.940;8.450;2022-11-18T15:46:20;0.10;;;0.10;;
6243;SDS011;3155;49.940;8.450;2022-11-18T15:48:52;0.20;;;0.20;;
6243;SDS011;3155;49.940;8.450;2022-11-18T15:51:20;0.40;;;0.30;;
6243;SDS011;3155;49.940;8.450;2022-11-18T15:53:47;0.40;;;0.40;;
6243;SDS011;3155;49.940;8.450;2022-11-18T15:58:57;0.50;;;0.50;;
6243;SDS011;3155;49.940;8.450;2022-11-18T16:01:31;0.75;;;0.22;;
6243;SDS011;3155;49.940;8.450;2022-11-18T16:04:03;0.20;;;0.20;;
6243;SDS011;3155;49.940;8.450;2022-11-18T16:06:31;1.70;;;0.80;;
6243;SDS011;3155;49.940;8.450;2022-11-18T16:08:58;0.40;;;0.40;;
6243;SDS011;3155;49.940;8.450;2022-11-18T16:11:26;0.65;;;0.32;;
6243;SDS011;3155;49.940;8.450;2022-11-18T16:14:12;0.20;;;0.20;;
6243;SDS011;3155;49.940;8.450;2022-11-18T16:16:42;0.40;;;0.40;;
6243;SDS011;3155;49.940;8.450;2022-11-18T16:19:11;0.22;;;0.22;;
6243;SDS011;3155;49.940;8.450;2022-11-18T16:21:41;0.40;;;0.40;;
6243;SDS011;3155;49.940;8.450;2022-11-18T16:24:11;0.20;;;0.20;;
6243;SDS011;3155;49.940;8.450;2022-11-18T16:26:39;0.25;;;0.25;;
6243;SDS011;3155;49.940;8.450;2022-11-18T16:29:06;0.20;;;0.20;;
6243;SDS011;3155;49.940;8.450;2022-11-18T16:31:35;0.30;;;0.30;;
6243;SDS011;3155;49.940;8.450;2022-11-18T16:34:17;0.20;;;0.20;;
6243;SDS011;3155;49.940;8.450;2022-11-18T16:36:52;0.22;;;0.22;;
6243;SDS011;3155;49.940;8.450;2022-11-18T16:39:21;0.20;;;0.20;;
6243;SDS011;3155;49.940;8.450;2022-11-18T16:41:51;0.17;;;0.17;;
6243;SDS011;3155;49.940;8.450;2022-11-18T16:44:19;0.22;;;0.22;;
6243;SDS011;3155;49.940;8.450;2022-11-18T16:46:53;1.80;;;0.80;;
6243;SDS011;3155;49.940;8.450;2022-11-18T16:49:22;0.30;;;0.30;;
6243;SDS011;3155;49.940;8.450;2022-11-18T16:51:50;0.20;;;0.20;;
6243;SDS011;3155;49.940;8.450;2022-11-18T16:54:26;0.20;;;0.20;;
6243;SDS011;3155;49.940;8.450;2022-11-18T16:56:55;0.10;;;0.10;;
6243;SDS011;3155;49.940;8.450;2022-11-18T16:59:23;0.55;;;0.55;;
6243;SDS011;3155;49.940;8.450;2022-11-18T17:01:52;0.30;;;0.30;;
6243;SDS011;3155;49.940;8.450;2022-11-18T17:04:21;0.28;;;0.28;;
6243;SDS011;3155;49.940;8.450;2022-11-18T17:06:49;0.30;;;0.30;;
6243;SDS011;3155;49.940;8.450;2022-11-18T17:09:18;0.70;;;0.20;;
6243;SDS011;3155;49.940;8.450;2022-11-18T17:11:46;0.20;;;0.20;;
6243;SDS011;3155;49.940;8.450;2022-11-18T17:14:14;0.30;;;0.30;;
6243;SDS011;3155;49.940;8.450;2022-11-18T17:16:40;0.40;;;0.40;;
6243;SDS011;3155;49.940;8.450;2022-11-18T17:19:08;0.20;;;0.20;;
6243;SDS011;3155;49.940;8.450;2022-11-18T17:21:39;0.73;;;0.73;;
6243;SDS011;3155;49.940;8.450;2022-11-18T17:24:06;0.20;;;0.20;;
6243;SDS011;3155;49.940;8.450;2022-11-18T17:26:33;0.20;;;0.20;;
6243;SDS011;3155;49.940;8.450;2022-11-18T17:29:00;0.32;;;0.32;;
6243;SDS011;3155;49.940;8.450;2022-11-18T17:31:27;0.40;;;0.40;;
6243;SDS011;3155;49.940;8.450;2022-11-18T17:33:54;0.30;;;0.30;;
6243;SDS011;3155;49.940;8.450;2022-11-18T17:36:22;0.20;;;0.20;;
6243;SDS011;3155;49.940;8.450;2022-11-18T17:38:50;0.40;;;0.40;;
6243;SDS011;3155;49.940;8.450;2022-11-18T17:41:20;0.40;;;0.40;;
6243;SDS011;3155;49.940;8.450;2022-11-18T17:44:07;0.50;;;0.38;;
6243;SDS011;3155;49.940;8.450;2022-11-18T17:46:35;0.70;;;0.70;;
6243;SDS011;3155;49.940;8.450;2022-11-18T17:49:04;0.50;;;0.50;;
6243;SDS011;3155;49.940;8.450;2022-11-18T17:51:35;2.20;;;0.45;;
6243;SDS011;3155;49.940;8.450;2022-11-18T17:54:02;0.45;;;0.45;;
6243;SDS011;3155;49.940;8.450;2022-11-18T17:56:29;0.30;;;0.30;;
6243;SDS011;3155;49.940;8.450;2022-11-18T17:58:55;0.88;;;0.30;;
6243;SDS011;3155;49.940;8.450;2022-11-18T18:01:22;0.30;;;0.30;;
6243;SDS011;3155;49.940;8.450;2022-11-18T18:03:49;0.47;;;0.40;;
6243;SDS011;3155;49.940;8.450;2022-11-18T18:06:16;0.45;;;0.45;;
6243;SDS011;3155;49.940;8.450;2022-11-18T18:08:46;0.40;;;0.40;;